KSOW/SOW METAR and TAF weather

Enter ICAO airport designator
Station Type Date Time Source
KSOW METAR 2022/06/30 01:35 UTC NOAA

KSOW 300135Z AUTO 23005KT 10SM CLR 23/10 A3030 RMK AO2


Station Type Date Time Source
KSOW Decoded METAR 2022/06/30 01:35 UTC NOAA

Show Low, Show Low Regional Airport, AZ, United States (KSOW) 34-15-55N 110-00-20W
Jun 29, 2022 - 09:35 PM EDT / 2022.06.30 0135 UTC
Wind: from the SW (230 degrees) at 6 MPH (5 KT):0
Visibility: 10 mile(s):0
Sky conditions: clear
Temperature: 73 F (23 C)
Dew Point: 50 F (10 C)
Relative Humidity: 43%
Pressure (altimeter): 30.3 in. Hg (1026 hPa)
ob: KSOW 300135Z AUTO 23005KT 10SM CLR 23/10 A3030 RMK AO2
cycle: 1

Station Type Date Time Source
KSOW TAF UTC NOAA

Error!

Example: see airport list